Callaway, Maryland
Current Conditions -  °F | °C
As of 7:39 PM on Saturday 25 Oct 2014 (Local Time) from K2W6 Reporting Station
Clear Clear  
Wind Chill: 61°   Ceiling: Unl
Heat Index: 61°   Visibility: 10mi
Dew Point: 41°   Wind: 5mph
Humidity: 48%   Direction: 210°SSW
Pressure: 29.78"   Gusts: NA
Location:  38.24°N, 76.52°W
Report Text: K2W6 252339Z AUTO 21004KT 10SM CLR 16/05 A2978 RMK AO1
Loading
Personal Weather Stations






























Interactive Weather Map
Tropical Storm Tracking
New forecast layout! Learn more

10-Day Weather Forecast

Advertisements
Track Severe Weather on mobile